Time;durP1;ratioP1;P1;durP2;ratioP2;P2;SDS_P1;SDS_P2;PMS_P1;PMS_P2;Temp;Humidity;BMP_temperature;BMP_pressure;BME280_temperature;BME280_humidity;BME280_pressure;Samples;Min_cycle;Max_cycle;Signal;HPM_P1;HPM_P2
2023/12/07 00:01:52;;;;;;;28.00;19.83;;;2.80;1.00;;;;;;6342471;22;20158;-85
2023/12/07 00:04:17;;;;;;;32.60;19.43;;;2.80;1.00;;;;;;6342684;22;20158;-86
2023/12/07 00:06:43;;;;;;;28.73;18.97;;;2.70;1.00;;;;;;6340267;22;20231;-86
2023/12/07 00:09:08;;;;;;;29.47;18.60;;;2.70;1.00;;;;;;6343136;22;20246;-86
2023/12/07 00:11:34;;;;;;;32.40;18.93;;;2.70;1.00;;;;;;6342918;22;20228;-85
2023/12/07 00:13:59;;;;;;;33.20;20.33;;;2.70;1.00;;;;;;6344087;22;20272;-85
2023/12/07 00:16:25;;;;;;;31.57;19.07;;;2.70;1.00;;;;;;6343298;22;20175;-85
2023/12/07 00:18:50;;;;;;;34.63;20.30;;;2.70;1.00;;;;;;6344453;22;20253;-85
2023/12/07 00:21:16;;;;;;;33.50;20.13;;;2.70;1.00;;;;;;6316356;22;20545;-86
2023/12/07 00:23:41;;;;;;;31.60;18.77;;;2.70;1.00;;;;;;6343422;22;20152;-86
2023/12/07 00:26:07;;;;;;;30.67;19.27;;;2.70;1.00;;;;;;6345765;22;20152;-85
2023/12/07 00:28:32;;;;;;;34.20;19.40;;;2.70;1.00;;;;;;6344205;22;20171;-85
2023/12/07 00:30:58;;;;;;;32.00;20.03;;;2.70;1.00;;;;;;6343934;22;20179;-86
2023/12/07 00:33:23;;;;;;;35.80;20.90;;;2.70;1.00;;;;;;6318372;22;20159;-85
2023/12/07 00:35:49;;;;;;;38.03;22.67;;;2.70;1.00;;;;;;6346285;22;20234;-86
2023/12/07 00:38:15;;;;;;;34.05;20.30;;;2.70;1.00;;;;;;6345699;22;20197;-85
2023/12/07 00:40:41;;;;;;;34.93;21.97;;;2.70;1.00;;;;;;6345238;22;20175;-85
2023/12/07 00:43:07;;;;;;;35.25;21.00;;;2.70;1.00;;;;;;6345387;22;20151;-86
2023/12/07 00:45:33;;;;;;;41.05;21.80;;;2.70;1.00;;;;;;6344653;22;20144;-86
2023/12/07 00:47:58;;;;;;;35.10;20.87;;;2.70;1.00;;;;;;6345866;22;20171;-86
2023/12/07 00:50:24;;;;;;;30.70;19.63;;;2.70;1.00;;;;;;6342908;22;20687;-86
2023/12/07 00:52:49;;;;;;;34.20;22.60;;;2.70;1.00;;;;;;6346446;22;20152;-86
2023/12/07 00:55:15;;;;;;;39.37;22.93;;;2.70;1.00;;;;;;6346365;22;20159;-86
2023/12/07 00:57:40;;;;;;;36.13;21.03;;;2.70;1.00;;;;;;6344492;22;20224;-86
2023/12/07 01:00:07;;;;;;;37.07;21.93;;;2.70;1.00;;;;;;6343768;22;20183;-85
2023/12/07 01:02:33;;;;;;;38.58;22.20;;;2.70;1.00;;;;;;6345544;22;20147;-85
2023/12/07 01:04:59;;;;;;;32.50;20.97;;;2.70;1.00;;;;;;6343947;22;20196;-85
2023/12/07 01:07:24;;;;;;;43.00;22.53;;;2.70;1.00;;;;;;6343995;22;20151;-85
2023/12/07 01:09:49;;;;;;;40.00;21.33;;;2.70;1.00;;;;;;6341930;22;20175;-85
2023/12/07 01:12:15;;;;;;;36.60;23.13;;;2.70;1.00;;;;;;6341490;22;20167;-86
2023/12/07 01:14:41;;;;;;;41.07;23.27;;;2.70;1.00;;;;;;6343457;22;20498;-84
2023/12/07 01:17:06;;;;;;;33.77;20.80;;;2.70;1.00;;;;;;6341767;22;20159;-86
2023/12/07 01:19:32;;;;;;;40.97;23.40;;;2.60;1.00;;;;;;6345808;22;20191;-86
2023/12/07 01:21:57;;;;;;;39.70;23.17;;;2.60;1.00;;;;;;6347485;22;20148;-86
2023/12/07 01:24:23;;;;;;;46.20;24.37;;;2.60;1.00;;;;;;6319742;22;20158;-86
2023/12/07 01:26:48;;;;;;;41.53;22.47;;;2.60;1.00;;;;;;6347510;22;20143;-86
2023/12/07 01:29:14;;;;;;;38.30;22.40;;;2.60;1.00;;;;;;6347337;22;20197;-86
2023/12/07 01:31:40;;;;;;;43.80;24.47;;;2.60;1.00;;;;;;6345430;22;20579;-87
2023/12/07 01:34:06;;;;;;;38.47;23.05;;;2.60;1.00;;;;;;6340880;22;20147;-86
2023/12/07 01:36:31;;;;;;;38.37;23.67;;;2.60;1.00;;;;;;6341149;22;20329;-86
2023/12/07 01:38:58;;;;;;;40.87;23.47;;;2.60;1.00;;;;;;6342128;22;20861;-85
2023/12/07 01:41:23;;;;;;;47.90;24.92;;;2.60;1.00;;;;;;6314554;22;20246;-86
2023/12/07 01:43:49;;;;;;;41.90;24.10;;;2.60;2.10;;;;;;6343278;22;20143;-86
2023/12/07 01:46:16;;;;;;;43.08;24.60;;;2.60;4.90;;;;;;6341253;22;20609;-86
2023/12/07 01:48:43;;;;;;;45.25;26.52;;;2.60;7.90;;;;;;6341279;22;20171;-86
2023/12/07 01:51:10;;;;;;;41.90;24.95;;;2.60;9.50;;;;;;6342002;22;20151;-85
2023/12/07 01:53:37;;;;;;;56.45;26.45;;;2.60;12.40;;;;;;6341654;22;20564;-85
2023/12/07 01:56:03;;;;;;;44.00;25.70;;;2.70;16.20;;;;;;6343466;22;20200;-85
2023/12/07 01:58:29;;;;;;;46.20;25.58;;;2.70;19.70;;;;;;6315439;22;20175;-85
2023/12/07 02:00:55;;;;;;;54.30;26.73;;;2.70;22.80;;;;;;6343469;22;20638;-86
2023/12/07 02:03:21;;;;;;;48.47;27.27;;;2.70;25.50;;;;;;6343768;22;20151;-86
2023/12/07 02:05:48;;;;;;;43.23;26.10;;;2.80;28.10;;;;;;6344322;22;20455;-85
2023/12/07 02:08:14;;;;;;;46.97;27.55;;;2.80;31.30;;;;;;6317436;22;20304;-85
2023/12/07 02:10:40;;;;;;;54.63;28.30;;;2.80;33.70;;;;;;6344874;22;20159;-86
2023/12/07 02:13:06;;;;;;;47.63;26.57;;;2.80;37.00;;;;;;6346229;22;20151;-86
2023/12/07 02:15:32;;;;;;;46.80;25.35;;;2.90;37.80;;;;;;6345354;22;20159;-85
2023/12/07 02:18:16;;;;;;;50.00;26.93;;;2.90;36.50;;;;;;6346843;22;20167;-86
2023/12/07 02:20:52;;;;;;;52.72;25.33;;;2.90;33.10;;;;;;6347684;22;20206;-85
2023/12/07 02:23:18;;;;;;;45.88;25.75;;;2.80;28.30;;;;;;6348049;22;20139;-86
2023/12/07 02:29:06;;;;;;;51.53;25.95;;;2.80;21.50;;;;;;6343955;22;20217;-85
2023/12/07 02:31:32;;;;;;;44.93;26.13;;;2.80;18.90;;;;;;6343620;22;20595;-85
2023/12/07 02:33:58;;;;;;;48.80;26.23;;;2.70;17.40;;;;;;6343872;22;20151;-86
2023/12/07 02:36:26;;;;;;;52.10;25.85;;;2.70;16.70;;;;;;6343508;22;20150;-85
2023/12/07 02:38:56;;;;;;;47.50;26.98;;;2.70;15.80;;;;;;6344500;22;20188;-85
2023/12/07 02:41:22;;;;;;;51.67;26.92;;;2.70;12.70;;;;;;6317455;22;20265;-84
2023/12/07 02:43:47;;;;;;;39.67;24.53;;;2.70;10.70;;;;;;6345352;22;20618;-85
2023/12/07 02:46:13;;;;;;;48.93;27.60;;;2.60;9.70;;;;;;6342528;22;20420;-84
2023/12/07 02:48:38;;;;;;;50.63;26.40;;;2.60;10.50;;;;;;6340416;22;20179;-85
2023/12/07 02:51:04;;;;;;;50.73;28.30;;;2.60;12.80;;;;;;6344746;22;20413;-85
2023/12/07 02:53:30;;;;;;;59.73;29.57;;;2.60;14.80;;;;;;6343778;22;20155;-85
2023/12/07 02:55:55;;;;;;;48.27;27.30;;;2.60;14.60;;;;;;6346042;22;20200;-86
2023/12/07 02:58:21;;;;;;;42.33;25.20;;;2.60;13.10;;;;;;6344014;22;20613;-84
2023/12/07 03:00:46;;;;;;;66.23;28.20;;;2.50;12.60;;;;;;6308846;22;20224;-88
2023/12/07 03:03:12;;;;;;;48.23;26.30;;;2.60;14.20;;;;;;6332650;22;20196;-89
2023/12/07 03:05:43;;;;;;;51.40;27.43;;;2.60;13.70;;;;;;6307576;22;20435;-88
2023/12/07 03:08:16;;;;;;;52.10;27.65;;;2.60;12.60;;;;;;6307977;22;20132;-87
2023/12/07 03:10:44;;;;;;;50.58;26.52;;;2.50;12.50;;;;;;6306510;22;20513;-87
2023/12/07 03:13:13;;;;;;;53.75;28.73;;;2.50;11.30;;;;;;6305867;22;20163;-88
2023/12/07 03:15:46;;;;;;;51.05;27.40;;;2.50;9.60;;;;;;6306566;22;20159;-88
2023/12/07 03:18:20;;;;;;;47.92;28.55;;;2.50;3.80;;;;;;6305849;22;20164;-88
2023/12/07 03:20:50;;;;;;;52.00;28.20;;;2.40;1.00;;;;;;6305823;22;20192;-88
2023/12/07 03:23:16;;;;;;;47.88;27.92;;;2.40;1.00;;;;;;6306297;22;20163;-88
2023/12/07 03:25:44;;;;;;;51.30;28.80;;;2.30;1.00;;;;;;6305997;22;20156;-87
2023/12/07 03:28:10;;;;;;;55.22;27.73;;;2.30;1.00;;;;;;6306753;22;20184;-88
2023/12/07 03:30:40;;;;;;;48.57;27.03;;;2.30;4.20;;;;;;6303704;22;20658;-87
2023/12/07 03:33:06;;;;;;;53.08;29.88;;;2.30;6.50;;;;;;6305485;22;20148;-87
2023/12/07 03:35:34;;;;;;;50.57;26.10;;;2.30;6.50;;;;;;6306762;22;20184;-88
2023/12/07 03:38:08;;;;;;;53.33;27.95;;;2.30;5.10;;;;;;6307380;22;20580;-88
2023/12/07 03:40:33;;;;;;;54.30;26.67;;;2.30;4.80;;;;;;6305180;22;20183;-88
2023/12/07 03:43:03;;;;;;;49.20;26.23;;;2.30;5.60;;;;;;6304994;22;20155;-88
2023/12/07 03:45:31;;;;;;;63.67;29.15;;;2.30;7.90;;;;;;6306390;22;20210;-88
2023/12/07 03:48:00;;;;;;;48.67;27.45;;;2.30;9.20;;;;;;6305767;22;20149;-88
2023/12/07 03:50:25;;;;;;;46.47;25.30;;;2.30;9.00;;;;;;6305488;22;20176;-88
2023/12/07 03:52:51;;;;;;;53.03;26.63;;;2.30;6.60;;;;;;6305510;22;20160;-88
2023/12/07 03:55:40;;;;;;;54.37;26.03;;;2.30;5.50;;;;;;6307699;22;20160;-88
2023/12/07 03:58:07;;;;;;;49.05;28.10;;;2.30;5.60;;;;;;6305932;22;20478;-88
2023/12/07 04:00:33;;;;;;;50.90;26.27;;;2.30;2.80;;;;;;6303925;22;20597;-88
2023/12/07 04:03:01;;;;;;;52.57;28.37;;;2.20;1.00;;;;;;6305368;22;20153;-88
2023/12/07 04:05:30;;;;;;;52.15;27.63;;;2.20;1.00;;;;;;6305493;22;20157;-88
2023/12/07 04:07:58;;;;;;;50.78;26.67;;;2.20;1.00;;;;;;6305961;22;20154;-88
2023/12/07 04:10:41;;;;;;;46.80;25.48;;;2.20;1.00;;;;;;6305042;22;20643;-88
2023/12/07 04:13:07;;;;;;;58.08;27.88;;;2.20;1.30;;;;;;6305888;22;20218;-88
2023/12/07 04:15:33;;;;;;;53.37;25.60;;;2.20;1.80;;;;;;6313468;22;20176;-89
2023/12/07 04:18:02;;;;;;;56.63;26.37;;;2.20;1.00;;;;;;6307011;22;20190;-88
2023/12/07 04:20:28;;;;;;;50.65;27.00;;;2.20;1.00;;;;;;6306328;22;20191;-88
2023/12/07 04:23:04;;;;;;;52.90;26.70;;;2.10;1.00;;;;;;6309916;22;20156;-87
2023/12/07 04:25:30;;;;;;;53.38;26.73;;;2.10;1.00;;;;;;6309038;22;20144;-87
2023/12/07 04:28:03;;;;;;;53.80;27.03;;;2.10;1.00;;;;;;6304755;22;20237;-88
2023/12/07 04:30:31;;;;;;;50.03;25.02;;;2.00;1.00;;;;;;6305895;22;20393;-88
2023/12/07 04:33:02;;;;;;;48.42;25.73;;;2.00;1.00;;;;;;6305591;22;20192;-88
2023/12/07 04:35:30;;;;;;;45.28;25.00;;;1.90;1.00;;;;;;6306192;22;20243;-89
2023/12/07 04:37:55;;;;;;;47.30;24.30;;;1.90;1.00;;;;;;6307290;22;20238;-87
2023/12/07 04:40:21;;;;;;;42.00;24.37;;;1.90;1.00;;;;;;6304507;22;20215;-88
2023/12/07 04:42:47;;;;;;;52.60;25.50;;;1.90;1.00;;;;;;6307093;22;20155;-88
2023/12/07 04:45:30;;;;;;;54.60;26.17;;;1.90;1.00;;;;;;6305290;22;20489;-88
2023/12/07 04:48:03;;;;;;;99.57;44.53;;;1.90;1.00;;;;;;6281416;22;20140;-88
2023/12/07 04:50:35;;;;;;;58.58;28.05;;;1.80;1.00;;;;;;6306955;22;20176;-86
2023/12/07 04:53:05;;;;;;;109.68;32.50;;;1.80;1.00;;;;;;6331336;22;20144;-88
2023/12/07 04:55:33;;;;;;;145.85;34.65;;;1.80;1.00;;;;;;6305196;22;20526;-87
2023/12/07 04:58:04;;;;;;;206.48;34.28;;;1.90;1.00;;;;;;6304873;22;20184;-88
2023/12/07 05:00:33;;;;;;;134.88;32.50;;;2.00;1.80;;;;;;6305572;22;20198;-87
2023/12/07 05:03:14;;;;;;;117.78;30.48;;;2.00;5.20;;;;;;6279684;22;20152;-88
2023/12/07 05:05:51;;;;;;;127.15;32.70;;;2.00;7.30;;;;;;6307117;22;20687;-88
2023/12/07 05:08:22;;;;;;;77.72;27.73;;;2.10;8.30;;;;;;6278897;22;20156;-86
2023/12/07 05:10:54;;;;;;;158.55;46.67;;;2.10;5.80;;;;;;6305665;22;20556;-88
2023/12/07 05:13:23;;;;;;;82.05;25.80;;;2.10;3.20;;;;;;6279869;22;20574;-88
2023/12/07 05:16:05;;;;;;;90.43;27.25;;;2.10;5.70;;;;;;6271721;22;20159;-86
2023/12/07 05:18:39;;;;;;;73.95;25.92;;;2.10;10.20;;;;;;6305193;22;20227;-88
2023/12/07 05:21:22;;;;;;;78.22;25.23;;;2.20;10.80;;;;;;6278070;22;20569;-88
2023/12/07 05:24:04;;;;;;;92.82;25.90;;;2.20;7.40;;;;;;6279726;22;20156;-88
2023/12/07 05:26:36;;;;;;;91.93;37.45;;;2.20;5.20;;;;;;6306353;22;20159;-88
2023/12/07 05:29:21;;;;;;;76.35;34.28;;;2.20;3.20;;;;;;6279093;22;20306;-88
2023/12/07 05:31:52;;;;;;;86.55;27.40;;;2.20;1.00;;;;;;6279163;22;20229;-86
2023/12/07 05:34:24;;;;;;;84.22;27.30;;;2.00;1.00;;;;;;6279117;22;20163;-88
2023/12/07 05:37:05;;;;;;;91.07;28.02;;;1.90;1.00;;;;;;6306634;22;20159;-88
2023/12/07 05:39:45;;;;;;;71.22;26.67;;;1.80;1.00;;;;;;6279687;22;20193;-87
2023/12/07 05:42:19;;;;;;;89.70;43.15;;;1.70;1.00;;;;;;6278380;22;20152;-87
2023/12/07 05:44:53;;;;;;;89.65;36.25;;;1.70;1.00;;;;;;6279905;22;20145;-88
2023/12/07 05:47:30;;;;;;;98.40;28.80;;;1.70;1.00;;;;;;6285958;22;20147;-88
2023/12/07 05:50:08;;;;;;;193.02;33.85;;;1.70;1.00;;;;;;6279471;22;20570;-87
2023/12/07 05:52:45;;;;;;;117.18;28.42;;;1.70;1.00;;;;;;6305921;22;20159;-87
2023/12/07 05:55:14;;;;;;;118.32;27.45;;;1.60;1.00;;;;;;6307282;22;20584;-88
2023/12/07 05:57:44;;;;;;;114.60;28.90;;;1.60;1.00;;;;;;6278034;22;20156;-87
2023/12/07 06:00:11;;;;;;;96.25;34.83;;;1.50;1.00;;;;;;6291085;22;20538;-88
2023/12/07 06:02:36;;;;;;;87.78;30.20;;;1.60;1.00;;;;;;6306286;22;20197;-88
2023/12/07 06:05:05;;;;;;;120.87;33.23;;;1.70;5.60;;;;;;6304353;22;20176;-87
2023/12/07 06:07:31;;;;;;;109.28;28.63;;;1.70;9.40;;;;;;6304330;22;20273;-88
2023/12/07 06:09:59;;;;;;;100.87;27.10;;;1.80;10.00;;;;;;6305478;22;20171;-89
2023/12/07 06:12:25;;;;;;;124.57;29.75;;;1.80;10.70;;;;;;6306154;22;20152;-88
2023/12/07 06:14:51;;;;;;;106.03;26.90;;;1.90;10.70;;;;;;6303885;22;20512;-87
2023/12/07 06:17:19;;;;;;;106.47;27.67;;;1.90;4.70;;;;;;6305203;22;20205;-88
2023/12/07 06:19:45;;;;;;;138.90;30.08;;;1.90;3.00;;;;;;6305866;22;20262;-87
2023/12/07 06:22:10;;;;;;;85.90;26.73;;;1.90;3.70;;;;;;6304155;22;20661;-88
2023/12/07 06:24:36;;;;;;;130.90;31.37;;;1.90;2.20;;;;;;6306154;22;20144;-88
2023/12/07 06:27:02;;;;;;;110.33;34.40;;;1.90;3.60;;;;;;6303309;22;20166;-89
2023/12/07 06:29:29;;;;;;;75.18;23.73;;;1.90;2.30;;;;;;6305108;22;20279;-88
2023/12/07 06:31:54;;;;;;;84.43;25.10;;;1.80;1.00;;;;;;6304991;22;20156;-88
2023/12/07 06:34:20;;;;;;;126.03;27.03;;;1.70;1.00;;;;;;6304276;22;20187;-88
2023/12/07 06:36:46;;;;;;;75.33;28.20;;;1.70;1.00;;;;;;6304393;22;20243;-88
2023/12/07 06:39:11;;;;;;;142.97;33.30;;;1.60;1.00;;;;;;6305862;22;20168;-88
2023/12/07 06:41:37;;;;;;;132.27;32.27;;;1.50;1.00;;;;;;6306069;22;20424;-87
2023/12/07 06:44:02;;;;;;;122.87;32.37;;;1.50;1.00;;;;;;6298658;22;20600;-86
2023/12/07 06:46:28;;;;;;;159.83;32.50;;;1.50;1.00;;;;;;6303536;22;20180;-87
2023/12/07 06:49:01;;;;;;;185.37;34.60;;;1.50;1.00;;;;;;6302045;22;20193;-86
2023/12/07 06:51:32;;;;;;;130.38;31.98;;;1.50;1.00;;;;;;6302535;22;20567;-86
2023/12/07 06:53:58;;;;;;;92.38;32.47;;;1.50;1.00;;;;;;6305114;22;20274;-85
2023/12/07 06:56:23;;;;;;;94.40;32.70;;;1.50;1.00;;;;;;6303133;22;20616;-87
2023/12/07 06:58:52;;;;;;;76.07;29.67;;;1.50;1.00;;;;;;6304095;22;20182;-87
2023/12/07 07:01:17;;;;;;;60.17;27.98;;;1.50;1.00;;;;;;6304387;22;20179;-87
2023/12/07 07:03:43;;;;;;;51.27;27.47;;;1.50;1.00;;;;;;6303876;22;20153;-86
2023/12/07 07:06:08;;;;;;;65.70;31.27;;;1.50;1.00;;;;;;6302944;22;20499;-86
2023/12/07 07:08:34;;;;;;;57.17;28.47;;;1.50;1.00;;;;;;6302940;22;20164;-87
2023/12/07 07:10:59;;;;;;;52.40;27.70;;;1.50;1.00;;;;;;6302062;22;20612;-86
2023/12/07 07:13:25;;;;;;;56.93;28.20;;;1.50;1.00;;;;;;6304708;22;20221;-86
2023/12/07 07:15:50;;;;;;;50.83;26.57;;;1.50;1.00;;;;;;6303570;22;20243;-85
2023/12/07 07:18:16;;;;;;;59.80;29.00;;;1.50;1.00;;;;;;6311955;22;20549;-86
2023/12/07 07:20:42;;;;;;;64.60;27.63;;;1.50;1.00;;;;;;6304698;22;20184;-84
2023/12/07 07:23:08;;;;;;;51.53;29.07;;;1.60;1.00;;;;;;6304226;22;20172;-87
2023/12/07 07:25:34;;;;;;;54.83;27.70;;;1.60;1.00;;;;;;6304468;22;20778;-87
2023/12/07 07:28:00;;;;;;;42.47;24.88;;;1.70;1.00;;;;;;6303419;22;20152;-87
2023/12/07 07:30:26;;;;;;;57.17;21.90;;;1.70;1.00;;;;;;6305494;22;20202;-86
2023/12/07 07:32:52;;;;;;;33.67;21.10;;;1.70;1.00;;;;;;6304997;22;20155;-86
2023/12/07 07:35:17;;;;;;;35.03;21.00;;;1.70;1.00;;;;;;6304367;22;20180;-86
2023/12/07 07:37:43;;;;;;;39.90;22.20;;;1.70;1.00;;;;;;6306518;22;20160;-86
2023/12/07 07:40:11;;;;;;;46.53;22.10;;;1.80;1.00;;;;;;6305792;22;20792;-86
2023/12/07 07:42:38;;;;;;;57.42;23.00;;;1.80;1.00;;;;;;6306832;22;20158;-86
2023/12/07 07:45:05;;;;;;;123.35;23.90;;;1.90;1.00;;;;;;6306676;22;20182;-85
2023/12/07 07:47:30;;;;;;;79.70;23.00;;;1.90;1.00;;;;;;6307360;22;20151;-86
2023/12/07 07:49:56;;;;;;;94.87;23.07;;;2.00;1.00;;;;;;6304114;22;20175;-85
2023/12/07 07:52:21;;;;;;;65.83;21.43;;;2.10;1.00;;;;;;6308053;22;20193;-86
2023/12/07 07:54:47;;;;;;;60.53;22.00;;;2.20;1.00;;;;;;6305681;22;20159;-87
2023/12/07 07:57:12;;;;;;;63.80;19.97;;;2.40;1.00;;;;;;6307626;22;20156;-86
2023/12/07 07:59:38;;;;;;;44.80;20.30;;;2.50;1.00;;;;;;6310640;22;20180;-86
2023/12/07 08:02:04;;;;;;;71.07;20.83;;;2.60;1.00;;;;;;6281333;22;20248;-85
2023/12/07 08:04:29;;;;;;;71.33;20.57;;;2.70;1.00;;;;;;6308034;22;20371;-84
2023/12/07 08:06:55;;;;;;;75.77;21.57;;;2.80;1.00;;;;;;6280940;22;20160;-85
2023/12/07 08:09:20;;;;;;;65.20;19.40;;;3.00;1.00;;;;;;6307588;22;20172;-85
2023/12/07 08:11:46;;;;;;;51.10;18.63;;;3.10;99.90;;;;;;6307117;22;20148;-85
2023/12/07 08:14:12;;;;;;;45.00;19.10;;;3.20;99.90;;;;;;6306730;22;20157;-85
2023/12/07 08:16:38;;;;;;;38.67;18.17;;;3.40;99.90;;;;;;6306888;22;20148;-85
2023/12/07 08:19:03;;;;;;;54.60;31.40;;;3.50;99.90;;;;;;6307429;22;20176;-86
2023/12/07 08:21:29;;;;;;;54.53;27.40;;;3.90;99.90;;;;;;6307167;22;20179;-85
2023/12/07 08:23:55;;;;;;;48.97;24.23;;;4.70;99.90;;;;;;6306623;22;20144;-85
2023/12/07 08:26:27;;;;;;;43.63;24.50;;;6.10;1.00;;;;;;6306207;22;20699;-86
2023/12/07 08:28:53;;;;;;;45.57;28.13;;;7.10;40.40;;;;;;6277862;22;20692;-87
2023/12/07 08:31:19;;;;;;;42.35;25.77;;;7.10;3.70;;;;;;6279593;22;20888;-86
2023/12/07 08:33:45;;;;;;;32.10;20.90;;;6.80;99.90;;;;;;6280179;22;20163;-85
2023/12/07 08:36:11;;;;;;;31.30;20.70;;;6.60;99.90;;;;;;6297522;22;20378;-86
2023/12/07 08:38:36;;;;;;;32.13;20.60;;;6.60;1.00;;;;;;6275798;22;20156;-87
2023/12/07 08:41:02;;;;;;;33.33;23.37;;;6.70;1.00;;;;;;6276113;22;20191;-86
2023/12/07 08:43:30;;;;;;;46.40;27.20;;;6.80;1.00;;;;;;6305911;22;20159;-87
2023/12/07 08:45:55;;;;;;;34.53;21.58;;;6.60;99.90;;;;;;6304050;22;20535;-87
2023/12/07 08:48:21;;;;;;;22.23;15.63;;;6.20;1.00;;;;;;6279039;22;20166;-87
2023/12/07 08:50:47;;;;;;;26.77;15.80;;;5.90;50.10;;;;;;6274271;22;20176;-86
2023/12/07 08:53:12;;;;;;;17.37;13.10;;;5.60;99.90;;;;;;6305512;22;20156;-87
2023/12/07 08:55:44;;;;;;;15.80;10.87;;;5.50;1.00;;;;;;6305617;22;20620;-86
2023/12/07 08:58:10;;;;;;;14.27;10.95;;;5.30;99.90;;;;;;6278263;22;20210;-85
2023/12/07 09:00:37;;;;;;;17.10;12.40;;;5.30;18.70;;;;;;6304124;22;20184;-86
2023/12/07 09:03:03;;;;;;;15.18;11.05;;;5.10;44.00;;;;;;6308755;22;20670;-86
2023/12/07 09:05:29;;;;;;;23.70;13.13;;;4.80;1.00;;;;;;6311006;22;20187;-86
2023/12/07 09:07:56;;;;;;;14.95;11.65;;;4.60;1.00;;;;;;6313759;22;20148;-84
2023/12/07 09:10:21;;;;;;;18.42;13.25;;;4.50;57.60;;;;;;6313539;22;20159;-84
2023/12/07 09:12:47;;;;;;;23.77;16.40;;;4.50;1.00;;;;;;6312624;22;20171;-85
2023/12/07 09:15:12;;;;;;;26.40;18.33;;;4.40;99.90;;;;;;6309861;22;20160;-84
2023/12/07 09:17:39;;;;;;;21.53;15.33;;;4.40;99.90;;;;;;6308446;22;20655;-85
2023/12/07 09:20:14;;;;;;;34.17;20.45;;;4.40;95.00;;;;;;6308192;22;20167;-84
2023/12/07 09:22:46;;;;;;;32.63;20.52;;;4.40;99.90;;;;;;6306550;22;20171;-85
2023/12/07 09:25:12;;;;;;;36.80;20.13;;;4.40;99.90;;;;;;6309168;22;20144;-85
2023/12/07 09:27:39;;;;;;;34.27;18.60;;;4.40;1.00;;;;;;6308951;22;20191;-85
2023/12/07 09:30:07;;;;;;;24.00;15.35;;;4.50;99.90;;;;;;6309363;22;20379;-85
2023/12/07 09:32:37;;;;;;;23.33;14.10;;;4.50;23.90;;;;;;6307719;22;20263;-86
2023/12/07 09:35:07;;;;;;;23.27;13.52;;;4.50;99.90;;;;;;6307215;22;20455;-85
2023/12/07 09:37:34;;;;;;;24.08;15.55;;;4.50;1.00;;;;;;6308617;22;20592;-85
2023/12/07 09:40:08;;;;;;;22.33;14.98;;;4.60;1.00;;;;;;6278481;22;20199;-84
2023/12/07 09:42:36;;;;;;;22.92;15.65;;;4.50;99.90;;;;;;6275749;22;20176;-86
2023/12/07 09:45:04;;;;;;;19.55;13.10;;;4.50;1.00;;;;;;6278366;22;20167;-85
2023/12/07 09:47:34;;;;;;;17.98;13.52;;;4.70;99.90;;;;;;6275647;22;20145;-84
2023/12/07 09:50:01;;;;;;;17.85;12.80;;;4.80;1.00;;;;;;6278638;22;20153;-86
2023/12/07 09:52:29;;;;;;;19.23;13.57;;;4.80;99.90;;;;;;6277689;22;20188;-85
2023/12/07 09:54:56;;;;;;;19.80;13.05;;;4.70;1.00;;;;;;6278693;22;20153;-86
2023/12/07 09:57:25;;;;;;;22.48;13.40;;;4.80;1.00;;;;;;6277289;22;20156;-85
2023/12/07 09:59:56;;;;;;;19.13;12.07;;;4.70;99.90;;;;;;6277333;22;20187;-84
2023/12/07 10:02:27;;;;;;;19.73;13.07;;;4.90;99.90;;;;;;6279164;22;20184;-85
2023/12/07 10:05:14;;;;;;;19.55;12.95;;;4.90;99.90;;;;;;6278958;22;20152;-85
2023/12/07 10:07:50;;;;;;;23.45;13.50;;;4.80;99.90;;;;;;6279136;22;20179;-86
2023/12/07 10:10:17;;;;;;;20.13;13.00;;;4.80;99.90;;;;;;6279177;22;20159;-86
2023/12/07 10:12:57;;;;;;;23.17;14.95;;;4.70;1.00;;;;;;6278374;22;20182;-85
2023/12/07 10:15:24;;;;;;;17.92;14.43;;;4.60;1.00;;;;;;6279396;22;20652;-85
2023/12/07 10:17:52;;;;;;;21.52;13.45;;;4.60;1.00;;;;;;6250456;22;20175;-85
2023/12/07 10:20:25;;;;;;;18.08;11.90;;;4.50;42.40;;;;;;6279609;22;20176;-85
2023/12/07 10:23:11;;;;;;;20.80;12.02;;;4.60;1.00;;;;;;6280133;22;20227;-85
2023/12/07 10:25:41;;;;;;;25.42;12.77;;;4.60;1.00;;;;;;6277908;22;20600;-84
2023/12/07 10:28:13;;;;;;;16.65;11.20;;;4.70;99.90;;;;;;6249630;22;20149;-85
2023/12/07 10:30:44;;;;;;;17.27;12.20;;;4.90;1.00;;;;;;6248827;22;20156;-85
2023/12/07 10:33:13;;;;;;;16.25;12.02;;;4.80;99.90;;;;;;6278897;22;20168;-85
2023/12/07 10:35:50;;;;;;;16.73;12.20;;;4.90;74.90;;;;;;6255152;22;20156;-85
2023/12/07 10:38:16;;;;;;;18.05;10.90;;;5.00;99.90;;;;;;6280217;22;20143;-86
2023/12/07 10:40:42;;;;;;;16.38;12.40;;;5.00;4.40;;;;;;6283715;22;20192;-86
2023/12/07 10:43:08;;;;;;;17.43;11.27;;;4.90;1.00;;;;;;6285246;22;20165;-86
2023/12/07 10:45:35;;;;;;;17.73;11.38;;;4.90;1.00;;;;;;6287359;22;20155;-86
2023/12/07 10:48:07;;;;;;;19.58;10.43;;;5.00;1.00;;;;;;6285095;22;20153;-85
2023/12/07 10:50:41;;;;;;;16.33;10.82;;;5.10;1.00;;;;;;6286897;22;20192;-86
2023/12/07 10:53:40;;;;;;;16.15;11.55;;;5.00;1.00;;;;;;6286374;22;20461;-87
2023/12/07 10:56:28;;;;;;;17.98;12.40;;;5.10;99.90;;;;;;6287357;22;20160;-86
2023/12/07 10:58:55;;;;;;;14.98;9.20;;;5.00;73.10;;;;;;6259861;22;20148;-86
2023/12/07 11:01:25;;;;;;;15.10;10.20;;;5.20;99.90;;;;;;6282976;22;20189;-83
2023/12/07 11:03:52;;;;;;;15.85;9.82;;;5.30;99.90;;;;;;6284737;22;20214;-84
2023/12/07 11:06:18;;;;;;;17.75;12.23;;;5.30;99.90;;;;;;6282872;22;20152;-84
2023/12/07 11:08:53;;;;;;;15.77;10.98;;;5.20;1.00;;;;;;6256964;22;20206;-85
2023/12/07 11:11:29;;;;;;;15.70;10.63;;;5.30;1.00;;;;;;6256364;22;20518;-84
2023/12/07 11:14:02;;;;;;;15.32;11.63;;;5.40;23.20;;;;;;6279501;22;20475;-85
2023/12/07 11:16:35;;;;;;;22.15;10.90;;;5.40;9.60;;;;;;6250548;22;20153;-83
2023/12/07 11:19:01;;;;;;;15.77;10.90;;;5.90;1.00;;;;;;6276697;22;20149;-82
2023/12/07 11:21:27;;;;;;;12.03;9.07;;;6.70;99.90;;;;;;6275467;22;20449;-83
2023/12/07 11:23:56;;;;;;;17.83;10.80;;;8.00;99.90;;;;;;6274877;22;20383;-84
2023/12/07 11:26:26;;;;;;;21.90;13.73;;;9.10;1.00;;;;;;6248844;22;20640;-85
2023/12/07 11:28:54;;;;;;;15.07;11.10;;;10.10;1.00;;;;;;6250465;22;21062;-85
2023/12/07 11:31:21;;;;;;;12.93;11.30;;;10.50;1.00;;;;;;6275573;22;20415;-85
2023/12/07 11:33:47;;;;;;;14.37;9.20;;;10.40;1.00;;;;;;6250880;22;20433;-85
2023/12/07 11:36:13;;;;;;;12.00;9.80;;;11.20;1.00;;;;;;6277230;22;20372;-84
2023/12/07 11:39:06;;;;;;;12.60;9.40;;;11.20;99.90;;;;;;6250321;22;20470;-84
2023/12/07 11:41:44;;;;;;;15.43;10.23;;;11.40;99.90;;;;;;6252926;22;20391;-85
2023/12/07 11:44:10;;;;;;;13.32;10.10;;;11.90;99.90;;;;;;6273538;22;20379;-84
2023/12/07 11:46:39;;;;;;;12.80;8.80;;;12.20;99.90;;;;;;6249344;22;20161;-85
2023/12/07 11:49:10;;;;;;;13.70;10.90;;;12.10;99.90;;;;;;6274196;22;20379;-85
2023/12/07 11:51:36;;;;;;;13.57;9.00;;;12.20;99.90;;;;;;6275825;22;20774;-85
2023/12/07 11:54:01;;;;;;;14.40;10.33;;;12.30;99.90;;;;;;6275903;22;20399;-84
2023/12/07 11:56:30;;;;;;;15.33;11.77;;;12.60;99.90;;;;;;6274709;22;20172;-85
2023/12/07 11:59:03;;;;;;;11.77;10.07;;;12.40;99.90;;;;;;6277270;22;20216;-86
2023/12/07 12:01:30;;;;;;;13.40;8.87;;;12.30;99.90;;;;;;6248592;22;20364;-85
2023/12/07 12:03:59;;;;;;;11.17;9.77;;;12.10;99.90;;;;;;6274272;22;20890;-85
2023/12/07 12:06:26;;;;;;;12.70;9.07;;;12.10;99.90;;;;;;6274715;22;20383;-84
2023/12/07 12:08:52;;;;;;;11.77;9.13;;;12.40;99.90;;;;;;6274384;22;20394;-84
2023/12/07 12:11:18;;;;;;;12.13;9.03;;;12.30;99.90;;;;;;6274358;22;20879;-85
2023/12/07 12:13:47;;;;;;;10.90;9.00;;;12.10;99.90;;;;;;6274955;22;20379;-85
2023/12/07 12:16:12;;;;;;;11.03;8.87;;;12.30;99.90;;;;;;6273772;22;20917;-85
2023/12/07 12:18:38;;;;;;;13.73;9.10;;;12.30;99.90;;;;;;6274479;22;20384;-85
2023/12/07 12:21:06;;;;;;;10.83;8.80;;;11.80;99.90;;;;;;6275874;22;20153;-85
2023/12/07 12:23:32;;;;;;;13.13;9.30;;;11.60;99.90;;;;;;6274198;22;20176;-85
2023/12/07 12:25:58;;;;;;;10.20;8.23;;;11.50;99.90;;;;;;6274818;22;20383;-85
2023/12/07 12:28:27;;;;;;;13.60;9.17;;;11.90;99.90;;;;;;6273753;22;20152;-85
2023/12/07 12:30:56;;;;;;;11.43;8.23;;;12.10;99.90;;;;;;6299270;22;20509;-85
2023/12/07 12:33:21;;;;;;;12.90;9.70;;;12.00;99.90;;;;;;6275675;22;20392;-83
2023/12/07 12:36:02;;;;;;;14.47;10.30;;;11.60;99.90;;;;;;6276826;22;20371;-85
2023/12/07 12:38:28;;;;;;;15.07;10.10;;;11.50;99.90;;;;;;6273777;22;20152;-84
2023/12/07 12:40:57;;;;;;;13.30;9.73;;;11.60;99.90;;;;;;6275140;22;20379;-85
2023/12/07 12:43:24;;;;;;;16.23;10.77;;;11.20;99.90;;;;;;6274630;22;20402;-85
2023/12/07 12:45:50;;;;;;;12.37;9.80;;;11.30;99.90;;;;;;6274787;22;20459;-85
2023/12/07 12:48:16;;;;;;;13.13;9.07;;;11.20;99.90;;;;;;6275618;22;20399;-85
2023/12/07 12:50:42;;;;;;;13.10;10.50;;;11.00;99.90;;;;;;6273646;22;20620;-83
2023/12/07 12:53:13;;;;;;;16.93;9.83;;;10.90;99.90;;;;;;6276442;22;20165;-84